Time;durP1;ratioP1;P1;durP2;ratioP2;P2;SDS_P1;SDS_P2;PMS_P1;PMS_P2;Temp;Humidity;BMP_temperature;BMP_pressure;BME280_temperature;BME280_humidity;BME280_pressure;Samples;Min_cycle;Max_cycle;Signal;HPM_P1;HPM_P2
2022/03/17 00:03:50;;;;;;;36.63;32.30;;;;;;;5.32;83.24;101252.72;10506189;28;20102;-73
2022/03/17 00:08:52;;;;;;;44.15;32.97;;;;;;;5.01;83.74;101248.09;10503604;28;20055;-74
2022/03/17 00:13:54;;;;;;;38.30;32.95;;;;;;;4.89;84.92;101241.00;10485371;28;20052;-73
2022/03/17 00:18:55;;;;;;;41.78;34.00;;;;;;;4.99;84.88;101232.41;10485183;28;20044;-73
2022/03/17 00:23:58;;;;;;;36.72;32.33;;;;;;;5.03;84.51;101239.41;10505116;28;20052;-73
2022/03/17 00:28:59;;;;;;;49.53;35.58;;;;;;;4.84;85.55;101215.75;10503152;28;20467;-73
2022/03/17 00:34:01;;;;;;;49.53;36.47;;;;;;;5.22;84.94;101211.81;10486085;28;20048;-72
2022/03/17 00:39:05;;;;;;;43.05;35.25;;;;;;;5.12;84.27;101220.38;10503308;28;20083;-73
2022/03/17 00:44:06;;;;;;;43.55;34.20;;;;;;;4.96;85.14;101218.50;10487883;28;20037;-74
2022/03/17 00:49:08;;;;;;;47.97;33.70;;;;;;;5.17;83.44;101207.38;10502765;28;20047;-73
2022/03/17 00:54:10;;;;;;;47.42;35.97;;;;;;;5.07;83.74;101202.09;10484055;28;20127;-74
2022/03/17 00:59:14;;;;;;;42.55;34.70;;;;;;;4.93;83.83;101201.09;10503488;28;20040;-73
2022/03/17 01:04:15;;;;;;;40.40;34.33;;;;;;;4.85;84.51;101197.53;10484589;28;20054;-74
2022/03/17 01:09:17;;;;;;;41.80;34.08;;;;;;;4.94;83.93;101195.00;10504261;28;20441;-73
2022/03/17 01:14:19;;;;;;;39.05;33.80;;;;;;;4.60;84.36;101196.38;10482517;28;20056;-74
2022/03/17 01:19:21;;;;;;;42.22;33.88;;;;;;;4.49;85.46;101193.69;10486749;28;20055;-74
2022/03/17 01:24:22;;;;;;;46.80;35.55;;;;;;;4.49;84.42;101191.06;10508259;28;20455;-73
2022/03/17 01:29:26;;;;;;;40.92;32.63;;;;;;;4.20;85.24;101195.91;10494084;28;20393;-74
2022/03/17 01:34:28;;;;;;;45.70;36.25;;;;;;;4.17;85.96;101190.69;10511566;28;20051;-73
2022/03/17 01:39:30;;;;;;;51.70;37.00;;;;;;;4.13;85.66;101201.03;10493313;28;20051;-74
2022/03/17 01:44:35;;;;;;;49.67;37.45;;;;;;;4.13;86.00;101204.50;10511354;28;20494;-74
2022/03/17 01:49:37;;;;;;;44.92;35.25;;;;;;;4.14;85.83;101201.06;10498449;28;20056;-75
2022/03/17 01:54:41;;;;;;;50.88;36.88;;;;;;;4.61;83.52;101210.31;10494560;28;20079;-74
2022/03/17 01:59:42;;;;;;;46.28;36.75;;;;;;;4.47;83.72;101198.00;10507795;28;20433;-74
2022/03/17 02:04:47;;;;;;;51.00;36.47;;;;;;;4.39;84.62;101202.25;10491807;28;20045;-74
2022/03/17 02:09:48;;;;;;;52.47;37.75;;;;;;;4.34;84.46;101198.72;10496081;28;20041;-74
2022/03/17 02:14:54;;;;;;;51.75;36.90;;;;;;;4.21;85.28;101189.00;10512301;28;20051;-74
2022/03/17 02:20:00;;;;;;;48.55;37.42;;;;;;;4.45;84.80;101181.47;10511321;28;20037;-74
2022/03/17 02:30:23;;;;;;;43.08;35.35;;;;;;;4.69;81.64;101173.06;10490891;28;20058;-74
2022/03/17 02:35:29;;;;;;;48.63;36.08;;;;;;;4.49;83.49;101167.63;10511533;28;20044;-74
2022/03/17 02:40:33;;;;;;;52.55;38.08;;;;;;;4.57;83.35;101175.53;10477078;28;20048;-74
2022/03/17 02:45:35;;;;;;;50.90;36.63;;;;;;;4.73;81.65;101166.13;10511237;28;20052;-74
2022/03/17 02:50:40;;;;;;;50.08;37.65;;;;;;;4.71;82.12;101165.25;10490460;28;20401;-74
2022/03/17 02:55:43;;;;;;;48.85;37.15;;;;;;;4.70;81.79;101161.78;10495419;28;20057;-74
2022/03/17 03:00:45;;;;;;;50.78;36.55;;;;;;;4.61;82.23;101156.50;10490757;28;20122;-73
2022/03/17 03:05:47;;;;;;;53.35;39.78;;;;;;;4.58;82.52;101166.88;10508048;28;20653;-73
2022/03/17 03:10:49;;;;;;;49.92;36.08;;;;;;;4.41;82.52;101160.59;10486873;28;20040;-73
2022/03/17 03:15:51;;;;;;;50.72;38.45;;;;;;;4.34;83.24;101162.28;10490132;28;20127;-74
2022/03/17 03:20:55;;;;;;;55.05;39.95;;;;;;;4.66;81.69;101164.34;10506778;28;20135;-74
2022/03/17 03:26:00;;;;;;;49.80;37.83;;;;;;;4.58;81.84;101161.66;10489854;28;20051;-74
2022/03/17 03:31:06;;;;;;;57.20;39.25;;;;;;;4.69;81.33;101157.44;10509347;28;20123;-74
2022/03/17 03:41:28;;;;;;;55.60;39.03;;;;;;;4.50;81.59;101169.38;10507914;28;20032;-74
2022/03/17 03:46:30;;;;;;;55.33;40.63;;;;;;;4.51;81.38;101159.84;10473764;28;20528;-74
2022/03/17 03:51:32;;;;;;;60.25;40.63;;;;;;;4.42;81.64;101154.53;10506867;28;20468;-74
2022/03/17 03:56:34;;;;;;;54.20;39.55;;;;;;;4.42;81.73;101168.41;10505856;28;20094;-74
2022/03/17 04:01:36;;;;;;;63.28;41.22;;;;;;;4.32;81.78;101169.16;10508221;28;20032;-74
2022/03/17 04:06:46;;;;;;;60.35;42.90;;;;;;;4.26;82.32;101169.97;10504858;28;20083;-74
2022/03/17 04:11:48;;;;;;;55.63;41.10;;;;;;;4.50;80.80;101171.13;10503562;28;20036;-73
2022/03/17 04:16:50;;;;;;;63.97;43.58;;;;;;;4.43;80.91;101166.72;10485269;28;20105;-73
2022/03/17 04:21:53;;;;;;;57.33;40.35;;;;;;;4.39;81.25;101167.53;10505836;28;20041;-73
2022/03/17 04:26:54;;;;;;;56.47;40.35;;;;;;;4.60;80.27;101172.06;10502540;28;20042;-73
2022/03/17 04:31:56;;;;;;;54.45;40.38;;;;;;;4.49;80.22;101154.63;10504460;28;20048;-73
2022/03/17 04:36:57;;;;;;;58.05;41.85;;;;;;;4.19;81.51;101160.34;10502749;28;20041;-73
2022/03/17 04:41:59;;;;;;;64.47;42.60;;;;;;;4.33;81.66;101155.28;10507500;28;20432;-73
2022/03/17 04:47:01;;;;;;;60.83;42.70;;;;;;;4.38;80.82;101174.44;10504092;28;20072;-73
2022/03/17 04:53:26;;;;;;;65.28;44.45;;;;;;;4.44;80.62;101158.91;10495160;22;20127;-71
2022/03/17 04:57:27;;;;;;;65.38;44.20;;;;;;;4.35;81.13;101152.72;10423328;28;20052;-71
2022/03/17 05:02:28;;;;;;;60.63;42.78;;;;;;;4.39;80.47;101144.09;10422491;28;20049;-71
2022/03/17 05:07:30;;;;;;;61.25;42.40;;;;;;;4.33;80.74;101152.69;10404693;28;20053;-71
2022/03/17 05:12:32;;;;;;;62.83;42.92;;;;;;;4.36;79.85;101154.47;10404704;28;20046;-71
2022/03/17 05:17:38;;;;;;;70.40;46.03;;;;;;;4.35;80.42;101157.94;10422161;28;20103;-70
2022/03/17 05:22:39;;;;;;;66.97;44.22;;;;;;;4.50;79.21;101163.28;10423073;28;20514;-70
2022/03/17 05:27:42;;;;;;;67.47;44.55;;;;;;;4.22;80.87;101164.72;10404439;28;20054;-71
2022/03/17 05:32:46;;;;;;;67.63;44.38;;;;;;;4.33;80.08;101165.72;10421382;28;20041;-70
2022/03/17 05:37:48;;;;;;;63.22;44.30;;;;;;;3.95;82.05;101173.06;10420628;28;20050;-71
2022/03/17 05:42:56;;;;;;;68.85;47.05;;;;;;;4.19;81.68;101172.47;10422881;28;20038;-70
2022/03/17 05:48:00;;;;;;;69.65;46.30;;;;;;;4.51;79.83;101178.94;10403751;28;20462;-70
2022/03/17 05:53:01;;;;;;;71.05;47.60;;;;;;;4.49;79.59;101180.66;10421738;28;20046;-71
2022/03/17 05:58:04;;;;;;;66.28;45.05;;;;;;;4.62;78.67;101168.66;10421174;28;20087;-71
2022/03/17 06:03:05;;;;;;;71.15;46.90;;;;;;;4.41;79.38;101171.88;10420255;28;20042;-71
2022/03/17 06:08:09;;;;;;;75.15;48.13;;;;;;;4.61;79.16;101168.66;10420345;28;20046;-70
2022/03/17 06:13:11;;;;;;;67.53;46.53;;;;;;;4.49;79.41;101169.38;10420056;28;20041;-70
2022/03/17 06:18:12;;;;;;;69.00;46.75;;;;;;;4.78;77.63;101177.47;10402559;28;20423;-70
2022/03/17 06:23:14;;;;;;;70.47;46.90;;;;;;;4.77;77.84;101178.34;10401903;28;20052;-70
2022/03/17 06:28:18;;;;;;;76.68;49.55;;;;;;;4.65;78.77;101173.91;10403695;28;20065;-71
2022/03/17 06:33:20;;;;;;;66.90;47.20;;;;;;;4.81;78.21;101170.56;10402013;28;20049;-69
2022/03/17 06:38:21;;;;;;;71.72;47.00;;;;;;;4.79;78.27;101176.66;10418669;28;20056;-71
2022/03/17 06:43:23;;;;;;;64.63;45.13;;;;;;;5.01;76.84;101181.19;10419251;28;20042;-71
2022/03/17 06:48:25;;;;;;;71.88;49.50;;;;;;;5.21;75.92;101191.78;10419142;28;20041;-72
2022/03/17 06:53:26;;;;;;;70.88;48.10;;;;;;;5.24;75.97;101193.56;10417773;28;20045;-70
2022/03/17 06:58:28;;;;;;;70.78;48.53;;;;;;;5.45;74.84;101198.94;10417352;28;20438;-70
2022/03/17 07:03:30;;;;;;;69.95;48.42;;;;;;;5.49;74.78;101208.56;10417518;28;20446;-70
2022/03/17 07:08:31;;;;;;;71.65;47.90;;;;;;;5.56;73.90;101207.72;10417368;28;20064;-70
2022/03/17 07:13:33;;;;;;;68.22;48.08;;;;;;;5.75;74.27;101207.84;10398874;28;20096;-70
2022/03/17 07:18:34;;;;;;;80.30;50.83;;;;;;;5.60;74.57;101199.91;10417201;28;20099;-70
2022/03/17 07:23:36;;;;;;;71.70;49.28;;;;;;;5.78;74.02;101216.56;10416612;28;20049;-70
2022/03/17 07:28:38;;;;;;;68.78;48.17;;;;;;;6.09;72.40;101202.88;10417207;28;20115;-70
2022/03/17 07:33:39;;;;;;;70.63;48.72;;;;;;;6.20;71.44;101209.03;10416046;28;20041;-70
2022/03/17 07:38:41;;;;;;;70.72;48.28;;;;;;;6.23;71.12;101224.69;10416135;28;20049;-70
2022/03/17 07:43:43;;;;;;;69.65;49.35;;;;;;;6.40;70.53;101230.88;10415509;28;20111;-70
2022/03/17 07:49:14;;;;;;;72.22;48.97;;;;;;;6.51;70.88;101233.53;10333520;28;20132;-70
2022/03/17 07:54:17;;;;;;;69.78;48.83;;;;;;;6.51;71.27;101241.38;10415709;28;20037;-71
2022/03/17 07:59:19;;;;;;;67.15;47.70;;;;;;;6.86;69.30;101245.81;10415879;28;20071;-70
2022/03/17 08:04:21;;;;;;;72.60;48.72;;;;;;;6.71;70.36;101242.31;10416731;28;20376;-70
2022/03/17 08:09:22;;;;;;;74.88;50.22;;;;;;;6.77;71.05;101247.56;10397609;28;20053;-70
2022/03/17 08:14:24;;;;;;;67.78;47.88;;;;;;;6.97;69.87;101251.97;10414928;28;20510;-70
2022/03/17 08:19:26;;;;;;;63.92;47.78;;;;;;;7.16;68.91;101245.03;10415319;28;20522;-70
2022/03/17 08:24:27;;;;;;;68.18;48.97;;;;;;;7.03;69.64;101255.47;10414819;28;20449;-68
2022/03/17 08:29:30;;;;;;;65.47;46.60;;;;;;;7.34;68.79;101247.66;10423088;28;20067;-69
2022/03/17 08:34:32;;;;;;;63.90;48.65;;;;;;;7.52;66.84;101239.81;10424270;28;20038;-72
2022/03/17 08:39:34;;;;;;;68.00;47.47;;;;;;;7.78;65.65;101244.16;10422450;28;20140;-71
2022/03/17 08:44:35;;;;;;;72.97;48.33;;;;;;;7.84;66.13;101249.41;10422829;28;20045;-71
2022/03/17 08:49:37;;;;;;;66.22;47.72;;;;;;;7.96;65.02;101240.66;10422154;28;20565;-71
2022/03/17 08:54:39;;;;;;;66.53;45.22;;;;;;;8.23;62.32;101237.97;10422234;28;20068;-72
2022/03/17 08:59:41;;;;;;;68.53;46.22;;;;;;;8.38;63.58;101236.22;10422194;28;20038;-72
2022/03/17 09:04:43;;;;;;;64.15;46.30;;;;;;;8.57;61.83;101240.50;10421770;28;20141;-71
2022/03/17 09:09:45;;;;;;;64.78;45.45;;;;;;;8.78;59.93;101244.78;10421570;28;20045;-72
2022/03/17 09:14:47;;;;;;;63.17;44.47;;;;;;;8.99;59.02;101242.06;10404051;28;20410;-71
2022/03/17 09:19:49;;;;;;;67.90;42.63;;;;;;;9.15;57.64;101239.31;10421416;28;20049;-71
2022/03/17 09:24:50;;;;;;;63.28;43.13;;;;;;;9.21;56.45;101239.25;10421142;28;20045;-71
2022/03/17 09:29:52;;;;;;;60.08;41.38;;;;;;;9.37;55.36;101242.66;10420644;28;20056;-71
2022/03/17 09:34:53;;;;;;;59.90;42.78;;;;;;;9.48;54.81;101238.22;10421461;28;20545;-72
2022/03/17 09:39:55;;;;;;;55.83;40.80;;;;;;;9.55;53.88;101248.63;10420413;28;20045;-72
2022/03/17 09:44:57;;;;;;;55.25;40.75;;;;;;;9.65;53.99;101245.94;10421290;28;20038;-71
2022/03/17 09:50:00;;;;;;;63.00;44.33;;;;;;;9.88;54.17;101241.34;10421329;28;20124;-71
2022/03/17 09:55:02;;;;;;;50.10;40.83;;;;;;;10.03;53.23;101245.56;10420464;28;20080;-71
2022/03/17 10:00:05;;;;;;;56.78;40.88;;;;;;;10.00;52.34;101248.22;10402662;28;20585;-72
2022/03/17 10:05:11;;;;;;;52.50;40.60;;;;;;;10.03;52.75;101248.19;10420698;28;20060;-71
2022/03/17 10:10:13;;;;;;;54.38;38.60;;;;;;;10.35;50.42;101245.25;10419825;28;20056;-71
2022/03/17 10:15:18;;;;;;;52.92;37.28;;;;;;;10.37;49.73;101251.38;10420109;28;20049;-71
2022/03/17 10:20:28;;;;;;;50.20;37.70;;;;;;;10.53;49.63;101252.06;10420415;28;20097;-71
2022/03/17 10:25:31;;;;;;;49.75;36.90;;;;;;;10.64;48.75;101241.41;10402455;28;20042;-71
2022/03/17 10:30:35;;;;;;;46.35;35.47;;;;;;;10.66;49.98;101239.63;10418814;28;20049;-71
2022/03/17 10:35:38;;;;;;;46.33;35.00;;;;;;;10.81;50.46;101242.06;10419295;28;20084;-71
2022/03/17 10:40:42;;;;;;;39.83;35.38;;;;;;;11.29;48.22;101240.50;10418538;28;20048;-71
2022/03/17 10:45:44;;;;;;;36.42;32.25;;;;;;;11.19;49.92;101248.53;10419416;28;20106;-70
2022/03/17 10:56:14;;;;;;;37.45;31.10;;;;;;;11.39;47.58;101248.25;10359100;28;20380;-70
2022/03/17 11:01:16;;;;;;;35.95;30.88;;;;;;;11.34;45.71;101240.41;10377608;28;20104;-70
2022/03/17 11:06:18;;;;;;;33.13;29.35;;;;;;;11.48;45.64;101243.69;10377722;28;20050;-70
2022/03/17 11:11:20;;;;;;;37.42;29.80;;;;;;;11.70;47.04;101246.84;10376636;28;20045;-70
2022/03/17 11:16:29;;;;;;;32.75;29.77;;;;;;;12.01;46.72;101246.34;10375827;28;20049;-72
2022/03/17 11:21:31;;;;;;;34.20;29.42;;;;;;;12.03;46.52;101249.81;10375424;28;20598;-71
2022/03/17 11:26:41;;;;;;;34.13;29.58;;;;;;;12.26;46.20;101244.97;10376459;28;20108;-71
2022/03/17 11:31:56;;;;;;;31.00;27.83;;;;;;;12.09;45.90;101247.06;10376317;28;20100;-71
2022/03/17 11:37:19;;;;;;;31.27;27.30;;;;;;;12.10;45.21;101233.00;10375937;28;20056;-71
2022/03/17 11:42:39;;;;;;;28.48;25.85;;;;;;;12.21;44.64;101236.28;10376708;28;20100;-73
2022/03/17 11:47:50;;;;;;;26.48;24.25;;;;;;;12.47;44.66;101254.22;10376227;28;20439;-71
2022/03/17 11:53:08;;;;;;;26.27;23.80;;;;;;;12.47;43.38;101246.31;10374626;28;20049;-71
2022/03/17 11:58:16;;;;;;;25.95;23.58;;;;;;;12.68;44.77;101252.06;10374469;28;20124;-71
2022/03/17 12:03:29;;;;;;;25.85;23.48;;;;;;;12.82;42.85;101240.28;10375222;28;20046;-71
2022/03/17 12:08:42;;;;;;;26.10;23.20;;;;;;;13.20;43.30;101243.84;10376110;28;20046;-72
2022/03/17 12:14:19;;;;;;;25.15;23.05;;;;;;;13.18;41.80;101242.13;10374436;28;20038;-71
2022/03/17 12:19:51;;;;;;;22.50;20.70;;;;;;;13.37;41.59;101238.22;10376235;28;20529;-71
2022/03/17 12:25:11;;;;;;;21.20;19.20;;;;;;;13.27;40.22;101234.03;10377739;28;20042;-71
2022/03/17 12:30:15;;;;;;;19.85;18.35;;;;;;;13.50;40.48;101234.38;10375048;28;20057;-71
2022/03/17 12:35:19;;;;;;;19.73;17.80;;;;;;;13.48;39.67;101224.72;10376145;28;20068;-71
2022/03/17 12:40:21;;;;;;;17.48;16.17;;;;;;;13.47;38.95;101225.63;10376636;28;20046;-71
2022/03/17 12:45:25;;;;;;;15.65;14.30;;;;;;;13.34;38.11;101219.78;10376685;28;20065;-72
2022/03/17 12:50:29;;;;;;;14.88;13.20;;;;;;;13.36;38.26;101218.81;10374379;28;20061;-71
2022/03/17 12:55:32;;;;;;;15.52;13.98;;;;;;;13.37;37.54;101219.72;10373482;28;20439;-73
2022/03/17 13:00:41;;;;;;;14.80;13.60;;;;;;;13.42;37.39;101209.03;10375999;28;20450;-73
2022/03/17 13:16:33;;;;;;;16.85;13.10;;;;;;;13.01;38.06;101214.34;10383547;28;19922;-71
2022/03/17 13:21:35;;;;;;;14.10;12.80;;;;;;;12.98;38.05;101213.56;10382885;28;20041;-72
2022/03/17 13:26:36;;;;;;;14.05;13.00;;;;;;;12.97;36.81;101214.44;10380817;28;20049;-71
2022/03/17 13:31:58;;;;;;;13.38;12.38;;;;;;;13.06;37.26;101219.56;10381983;28;20042;-71
2022/03/17 13:37:04;;;;;;;13.60;12.27;;;;;;;13.23;35.95;101220.03;10380780;28;20128;-71
2022/03/17 13:42:13;;;;;;;12.77;11.57;;;;;;;13.18;35.29;101223.66;10379857;28;20042;-70
2022/03/17 13:47:19;;;;;;;13.15;12.05;;;;;;;13.07;35.93;101224.78;10379270;28;20050;-72
2022/03/17 13:52:21;;;;;;;14.02;12.80;;;;;;;12.99;35.94;101224.09;10380548;28;20133;-71
2022/03/17 13:57:23;;;;;;;13.95;12.75;;;;;;;12.89;36.87;101219.94;10381061;28;20096;-72
2022/03/17 14:02:24;;;;;;;19.17;12.90;;;;;;;12.81;36.81;101229.78;10379749;28;20492;-72
2022/03/17 14:07:27;;;;;;;14.07;12.80;;;;;;;13.05;37.23;101236.25;10380834;28;20519;-72
2022/03/17 14:12:29;;;;;;;15.20;13.73;;;;;;;13.10;36.50;101235.28;10380124;28;20057;-73
2022/03/17 14:17:31;;;;;;;15.85;14.50;;;;;;;13.12;37.22;101240.50;10377024;28;20497;-73
2022/03/17 14:27:53;;;;;;;16.52;15.07;;;;;;;12.89;38.39;101248.97;10375300;28;20125;-72
2022/03/17 14:32:55;;;;;;;17.73;15.93;;;;;;;12.90;37.55;101248.03;10369542;28;20042;-71
2022/03/17 14:37:57;;;;;;;18.20;16.38;;;;;;;12.88;38.87;101260.38;10377078;28;20056;-72
2022/03/17 14:42:58;;;;;;;18.65;16.85;;;;;;;12.74;38.90;101262.47;10376724;28;20046;-73
2022/03/17 14:48:01;;;;;;;20.08;18.13;;;;;;;12.61;38.71;101264.47;10361499;28;20077;-72
2022/03/17 14:53:03;;;;;;;19.30;17.55;;;;;;;12.78;39.55;101266.78;10377646;28;20042;-72
2022/03/17 14:58:04;;;;;;;19.65;17.85;;;;;;;12.87;38.39;101261.28;10337128;28;20054;-71
2022/03/17 15:03:06;;;;;;;21.05;19.02;;;;;;;12.78;39.22;101269.41;10376927;28;20046;-72
2022/03/17 15:08:08;;;;;;;21.70;19.95;;;;;;;12.54;39.24;101273.44;10358927;28;20046;-73
2022/03/17 15:13:10;;;;;;;21.95;20.25;;;;;;;12.56;40.26;101275.13;10377262;28;20053;-72
2022/03/17 15:18:11;;;;;;;23.88;20.45;;;;;;;12.51;39.45;101274.34;10377680;28;20112;-71
2022/03/17 15:23:13;;;;;;;23.63;21.02;;;;;;;12.65;39.40;101275.84;10367009;28;20484;-71
2022/03/17 15:33:35;;;;;;;23.83;21.27;;;;;;;12.66;40.64;101286.38;10374674;28;20046;-71
2022/03/17 15:38:40;;;;;;;23.98;22.05;;;;;;;12.50;40.98;101298.13;10373225;28;20048;-71
2022/03/17 15:43:43;;;;;;;24.27;22.00;;;;;;;12.65;40.82;101302.22;10375681;28;20042;-72
2022/03/17 15:48:45;;;;;;;24.58;22.08;;;;;;;12.50;42.08;101306.91;10375285;28;20107;-72
2022/03/17 15:53:46;;;;;;;25.02;22.70;;;;;;;12.55;41.33;101307.69;10374590;28;20100;-70
2022/03/17 15:58:48;;;;;;;27.17;24.55;;;;;;;12.69;41.69;101309.19;10375287;28;20042;-71
2022/03/17 16:03:49;;;;;;;25.55;23.27;;;;;;;12.24;43.68;101320.59;10376281;28;20046;-71
2022/03/17 16:08:51;;;;;;;27.65;24.75;;;;;;;12.43;42.50;101322.88;10374989;28;20054;-71
2022/03/17 16:19:13;;;;;;;26.70;24.17;;;;;;;12.04;43.94;101333.22;10375239;28;20046;-72
2022/03/17 16:24:14;;;;;;;27.50;24.95;;;;;;;12.14;43.21;101341.88;10375060;28;20042;-72
2022/03/17 16:29:19;;;;;;;28.52;25.73;;;;;;;12.07;43.87;101341.09;10374860;28;20050;-74
2022/03/17 16:34:25;;;;;;;29.75;26.65;;;;;;;12.13;42.75;101356.81;10377417;28;20148;-73
2022/03/17 16:39:28;;;;;;;30.17;26.95;;;;;;;11.91;43.86;101351.03;10379339;28;20046;-72
2022/03/17 16:44:33;;;;;;;34.00;27.52;;;;;;;11.91;43.79;101355.41;10360752;28;20045;-73
2022/03/17 16:49:36;;;;;;;30.50;27.10;;;;;;;11.44;45.01;101364.88;10381439;28;20096;-71
2022/03/17 16:54:38;;;;;;;28.40;25.63;;;;;;;11.17;45.81;101371.41;10382429;28;20038;-70
2022/03/17 16:59:40;;;;;;;29.45;26.50;;;;;;;11.04;47.04;101384.69;10382251;28;20057;-70
2022/03/17 17:04:42;;;;;;;28.73;26.02;;;;;;;10.82;48.04;101396.34;10382540;28;20049;-69
2022/03/17 17:09:44;;;;;;;33.38;26.88;;;;;;;10.72;48.30;101392.97;10382299;28;20053;-71
2022/03/17 17:14:47;;;;;;;27.88;25.20;;;;;;;10.64;48.19;101407.09;10381718;28;20096;-70
2022/03/17 17:19:48;;;;;;;31.38;28.15;;;;;;;10.56;48.18;101420.28;10381075;28;20060;-70
2022/03/17 17:35:33;;;;;;;30.08;26.92;;;;;;;10.74;49.24;101437.66;10381792;28;20124;-71
2022/03/17 17:40:35;;;;;;;31.17;28.10;;;;;;;10.52;49.45;101437.84;10379971;28;20041;-69
2022/03/17 17:45:38;;;;;;;31.85;28.45;;;;;;;10.34;50.23;101446.75;10380831;28;20049;-70
2022/03/17 17:51:07;;;;;;;30.23;27.42;;;;;;;10.19;50.54;101453.88;10382007;28;20050;-69
2022/03/17 17:56:09;;;;;;;32.85;29.40;;;;;;;10.24;50.58;101457.34;10380506;28;20038;-69
2022/03/17 18:01:10;;;;;;;33.50;29.90;;;;;;;10.22;51.73;101473.09;10379254;28;20058;-70
2022/03/17 18:06:12;;;;;;;35.55;31.17;;;;;;;10.47;51.47;101475.59;10380061;28;20377;-71
2022/03/17 18:11:14;;;;;;;33.42;29.88;;;;;;;10.31;53.16;101486.25;10379835;28;20076;-70
2022/03/17 18:16:16;;;;;;;43.72;34.08;;;;;;;10.09;53.39;101482.84;10380220;28;20038;-70
2022/03/17 18:21:22;;;;;;;36.53;32.28;;;;;;;10.05;53.45;101485.50;10362674;28;20049;-69
2022/03/17 18:26:25;;;;;;;32.45;28.67;;;;;;;9.94;53.85;101496.06;10379320;28;20520;-69
2022/03/17 18:31:27;;;;;;;36.65;32.72;;;;;;;9.85;54.10;101499.63;10378717;28;20054;-70
2022/03/17 18:36:28;;;;;;;40.65;32.42;;;;;;;9.90;54.57;101494.34;10377885;28;20054;-70
2022/03/17 18:41:30;;;;;;;45.70;36.13;;;;;;;9.86;54.75;101503.97;10379959;28;20050;-71
2022/03/17 18:46:32;;;;;;;41.25;34.55;;;;;;;9.76;55.35;101517.19;10381422;28;20492;-70
2022/03/17 18:51:36;;;;;;;41.20;35.28;;;;;;;9.63;56.52;101519.00;10378492;28;20057;-69
2022/03/17 18:56:38;;;;;;;40.03;34.53;;;;;;;9.55;57.37;101534.75;10378939;28;20053;-69
2022/03/17 19:01:40;;;;;;;51.25;36.45;;;;;;;9.64;56.77;101536.47;10378647;28;20162;-70
2022/03/17 19:06:42;;;;;;;44.00;35.75;;;;;;;9.83;56.87;101545.19;10377571;28;20073;-70
2022/03/17 19:11:46;;;;;;;46.25;34.92;;;;;;;9.54;57.70;101566.28;10376776;28;20045;-70
2022/03/17 19:16:49;;;;;;;47.40;38.92;;;;;;;9.41;58.28;101570.69;10377242;28;20054;-71
2022/03/17 19:21:54;;;;;;;61.92;42.67;;;;;;;9.56;58.31;101583.78;10377577;28;20048;-70
2022/03/17 19:26:57;;;;;;;58.58;42.35;;;;;;;10.15;58.84;101588.81;10376601;28;20484;-70
2022/03/17 19:31:59;;;;;;;57.47;40.03;;;;;;;9.64;59.10;101607.38;10377882;28;20046;-70
2022/03/17 19:37:00;;;;;;;62.47;44.22;;;;;;;9.30;59.82;101604.84;10377157;28;20448;-70
2022/03/17 19:42:03;;;;;;;72.03;45.95;;;;;;;9.63;59.75;101608.25;10377015;28;20527;-70
2022/03/17 19:47:05;;;;;;;63.13;45.70;;;;;;;9.59;59.19;101610.00;10360190;28;20045;-70
2022/03/17 19:52:11;;;;;;;51.42;41.38;;;;;;;9.31;59.91;101618.81;10376287;28;20052;-69
2022/03/17 19:57:12;;;;;;;62.25;43.42;;;;;;;9.45;60.18;101618.81;10376823;28;20050;-70
2022/03/17 20:02:14;;;;;;;61.22;45.15;;;;;;;9.28;60.39;101631.94;10356487;28;20073;-69
2022/03/17 20:07:36;;;;;;;57.20;43.00;;;;;;;9.39;61.82;101629.31;10375246;28;20423;-70
2022/03/17 20:18:04;;;;;;;70.20;50.17;;;;;;;8.95;63.02;101645.94;10376601;28;20042;-70
2022/03/17 20:23:06;;;;;;;76.40;51.33;;;;;;;9.10;62.07;101649.44;10379419;28;20053;-70
2022/03/17 20:28:07;;;;;;;72.20;52.55;;;;;;;9.06;62.43;101652.06;10366336;28;20046;-70
2022/03/17 20:33:10;;;;;;;81.05;55.50;;;;;;;8.98;63.05;101666.91;10384631;28;20041;-70
2022/03/17 20:38:12;;;;;;;77.75;54.47;;;;;;;9.09;63.09;101668.69;10384100;28;20038;-70
2022/03/17 20:43:15;;;;;;;74.53;49.08;;;;;;;9.66;61.42;101679.16;10384063;28;20443;-70
2022/03/17 20:48:17;;;;;;;66.18;47.45;;;;;;;9.46;62.91;101676.53;10365958;28;20504;-70
2022/03/17 20:53:19;;;;;;;76.40;49.92;;;;;;;9.45;65.51;101679.16;10383449;28;20042;-71
2022/03/17 20:58:21;;;;;;;68.47;51.05;;;;;;;9.19;67.63;101692.28;10382849;28;20054;-69
2022/03/17 21:03:22;;;;;;;71.93;51.55;;;;;;;9.26;69.47;101680.94;10383700;28;20053;-71
2022/03/17 21:08:24;;;;;;;67.28;50.70;;;;;;;8.90;72.37;101706.25;10383475;28;20069;-69
2022/03/17 21:13:26;;;;;;;72.45;50.95;;;;;;;8.94;74.05;101709.75;10384056;28;20034;-69
2022/03/17 21:18:27;;;;;;;67.93;51.83;;;;;;;8.74;74.91;101726.31;10382917;28;20042;-70
2022/03/17 21:23:29;;;;;;;74.38;51.72;;;;;;;8.71;76.65;101736.78;10365034;28;20542;-71
2022/03/17 21:28:30;;;;;;;64.93;49.28;;;;;;;8.65;77.15;101742.03;10381759;28;20054;-70
2022/03/17 21:33:32;;;;;;;71.38;50.83;;;;;;;8.45;79.09;101741.94;10380896;28;20046;-70
2022/03/17 21:38:33;;;;;;;66.82;48.78;;;;;;;8.47;79.32;101744.59;10383357;28;20054;-70
2022/03/17 21:43:35;;;;;;;69.82;49.55;;;;;;;8.40;79.91;101761.13;10383813;28;20045;-71
2022/03/17 21:48:37;;;;;;;66.40;49.28;;;;;;;8.43;80.83;101764.66;10382914;28;20041;-70
2022/03/17 21:53:39;;;;;;;64.57;49.13;;;;;;;8.33;81.19;101765.44;10381460;28;20046;-70
2022/03/17 21:58:41;;;;;;;71.97;49.45;;;;;;;8.34;81.11;101778.53;10381179;28;20085;-70
2022/03/17 22:03:43;;;;;;;64.90;48.15;;;;;;;8.30;81.19;101778.53;10382381;28;20038;-69
2022/03/17 22:08:46;;;;;;;66.75;50.25;;;;;;;8.31;81.75;101788.13;10380042;28;20049;-69
2022/03/17 22:13:48;;;;;;;67.45;51.30;;;;;;;8.34;81.70;101798.63;10379598;28;20042;-70
2022/03/17 22:18:52;;;;;;;66.68;49.03;;;;;;;8.24;81.39;101804.69;10363484;28;20114;-70
2022/03/17 22:23:53;;;;;;;67.88;50.38;;;;;;;7.92;82.75;101800.09;10379601;28;20042;-70
2022/03/17 22:28:56;;;;;;;71.57;49.75;;;;;;;8.28;82.28;101806.47;10379891;28;20073;-69
2022/03/17 22:33:58;;;;;;;71.18;50.95;;;;;;;7.99;82.86;101814.13;10379942;28;20117;-69
2022/03/17 22:38:59;;;;;;;69.13;50.40;;;;;;;8.01;83.22;101812.38;10379543;28;20479;-70
2022/03/17 22:44:04;;;;;;;69.72;51.00;;;;;;;7.77;84.91;101816.56;10379315;28;20038;-69
2022/03/17 22:49:07;;;;;;;65.45;51.10;;;;;;;7.89;84.76;101821.03;10379418;28;20046;-69
2022/03/17 22:54:10;;;;;;;69.18;50.13;;;;;;;7.79;86.16;101830.56;10378357;28;20488;-70
2022/03/17 22:59:11;;;;;;;68.65;49.58;;;;;;;7.92;85.44;101831.50;10361511;28;20045;-71
2022/03/17 23:04:13;;;;;;;62.67;49.17;;;;;;;7.99;85.30;101840.31;10379134;28;20053;-70
2022/03/17 23:09:14;;;;;;;69.20;48.40;;;;;;;7.64;87.76;101843.50;10377582;28;20049;-70
2022/03/17 23:14:18;;;;;;;64.93;48.45;;;;;;;7.84;86.93;101856.78;10377595;28;20125;-71
2022/03/17 23:19:19;;;;;;;64.13;48.50;;;;;;;7.78;87.70;101864.56;10377204;28;20045;-71
2022/03/17 23:24:21;;;;;;;61.25;46.67;;;;;;;7.68;88.57;101861.00;10360665;28;20046;-70
2022/03/17 23:29:23;;;;;;;62.15;46.25;;;;;;;7.74;88.29;101868.03;10376759;28;20511;-69
2022/03/17 23:34:25;;;;;;;60.05;44.15;;;;;;;7.84;87.55;101872.50;10377170;28;20073;-69
2022/03/17 23:39:26;;;;;;;57.08;44.28;;;;;;;7.76;88.38;101871.53;10377017;28;20041;-70
2022/03/17 23:44:29;;;;;;;58.50;42.65;;;;;;;7.58;88.78;101874.88;10376705;28;20065;-71
2022/03/17 23:49:30;;;;;;;53.85;39.50;;;;;;;7.59;88.30;101889.69;10376726;28;20069;-70
2022/03/17 23:54:32;;;;;;;44.60;38.05;;;;;;;7.48;88.68;101904.41;10376916;28;20161;-70